Time;durP1;ratioP1;P1;durP2;ratioP2;P2;SDS_P1;SDS_P2;PMS_P1;PMS_P2;Temp;Humidity;BMP_temperature;BMP_pressure;BME280_temperature;BME280_humidity;BME280_pressure;Samples;Min_cycle;Max_cycle;Signal;HPM_P1;HPM_P2
2024/04/07 00:02:19;;;;;;;6.90;4.95;;;;;;;;;;5059173;28;20398;-61
2024/04/07 00:04:46;;;;;;;7.90;5.18;;;;;;;;;;5059307;28;20055;-62
2024/04/07 00:07:13;;;;;;;6.97;4.80;;;;;;;;;;5057508;28;20777;-62
2024/04/07 00:09:40;;;;;;;6.85;4.40;;;;;;;;;;5076495;28;20078;-61
2024/04/07 00:12:08;;;;;;;5.80;4.55;;;;;;;;;;5080116;28;20406;-61
2024/04/07 00:14:36;;;;;;;6.05;4.10;;;;;;;;;;5062480;28;20800;-61
2024/04/07 00:17:05;;;;;;;5.75;4.47;;;;;;;;;;5056917;28;20805;-60
2024/04/07 00:19:33;;;;;;;5.70;4.25;;;;;;;;;;5075022;28;20497;-65
2024/04/07 00:22:00;;;;;;;4.90;4.22;;;;;;;;;;5069409;28;20044;-60
2024/04/07 00:24:27;;;;;;;6.07;4.18;;;;;;;;;;5085762;28;20067;-61
2024/04/07 00:26:54;;;;;;;5.82;3.70;;;;;;;;;;5082929;28;20409;-62
2024/04/07 00:29:21;;;;;;;5.15;3.90;;;;;;;;;;5080518;28;20048;-61
2024/04/07 00:31:48;;;;;;;3.97;3.58;;;;;;;;;;5073482;28;20432;-62
2024/04/07 00:34:16;;;;;;;6.47;3.60;;;;;;;;;;5081489;28;20052;-61
2024/04/07 00:36:43;;;;;;;5.38;3.83;;;;;;;;;;5077155;28;20400;-61
2024/04/07 00:39:12;;;;;;;6.10;3.30;;;;;;;;;;5085429;28;20044;-59
2024/04/07 00:41:38;;;;;;;3.88;2.70;;;;;;;;;;5077878;28;20285;-61
2024/04/07 00:44:06;;;;;;;4.38;2.90;;;;;;;;;;5082886;28;20056;-61
2024/04/07 00:46:32;;;;;;;2.60;2.40;;;;;;;;;;5069341;28;20098;-60
2024/04/07 00:49:00;;;;;;;3.55;2.70;;;;;;;;;;5081201;28;20056;-60
2024/04/07 00:51:28;;;;;;;3.75;2.33;;;;;;;;;;5079395;28;20055;-60
2024/04/07 00:53:55;;;;;;;3.67;2.78;;;;;;;;;;5079892;28;20056;-64
2024/04/07 00:56:22;;;;;;;4.05;3.05;;;;;;;;;;5082979;28;20048;-61
2024/04/07 00:58:50;;;;;;;6.47;3.05;;;;;;;;;;5080854;28;20052;-61
2024/04/07 01:01:16;;;;;;;3.25;2.80;;;;;;;;;;5081324;28;20056;-61
2024/04/07 01:03:44;;;;;;;4.18;2.90;;;;;;;;;;5070849;28;20492;-60
2024/04/07 01:06:10;;;;;;;4.68;3.15;;;;;;;;;;5087074;28;20051;-60
2024/04/07 01:08:40;;;;;;;3.10;2.67;;;;;;;;;;5083033;28;20048;-62
2024/04/07 01:11:06;;;;;;;4.65;2.88;;;;;;;;;;5077023;28;20056;-60
2024/04/07 01:13:34;;;;;;;3.50;2.55;;;;;;;;;;5075694;28;20040;-65
2024/04/07 01:16:01;;;;;;;5.25;3.08;;;;;;;;;;5061836;28;20060;-60
2024/04/07 01:18:29;;;;;;;3.88;2.97;;;;;;;;;;5060369;28;20052;-59
2024/04/07 01:20:55;;;;;;;3.75;3.17;;;;;;;;;;5061214;28;20060;-60
2024/04/07 01:23:24;;;;;;;3.22;2.83;;;;;;;;;;5078597;28;20520;-60
2024/04/07 01:25:50;;;;;;;3.95;3.03;;;;;;;;;;5077689;27;20055;-62
2024/04/07 01:28:18;;;;;;;4.30;3.20;;;;;;;;;;5072487;28;20082;-59
2024/04/07 01:30:44;;;;;;;4.40;3.20;;;;;;;;;;5073060;28;20515;-61
2024/04/07 01:33:12;;;;;;;4.28;3.35;;;;;;;;;;5069830;28;20060;-60
2024/04/07 01:35:38;;;;;;;3.35;2.78;;;;;;;;;;5070510;28;20077;-62
2024/04/07 01:38:06;;;;;;;6.60;3.13;;;;;;;;;;5062163;28;20047;-60
2024/04/07 01:40:33;;;;;;;3.65;3.05;;;;;;;;;;5069279;28;20075;-60
2024/04/07 01:43:01;;;;;;;5.63;3.30;;;;;;;;;;5066448;28;20049;-60
2024/04/07 01:45:27;;;;;;;3.92;2.95;;;;;;;;;;5058151;28;20057;-60
2024/04/07 01:47:55;;;;;;;5.32;3.40;;;;;;;;;;5072179;28;20123;-60
2024/04/07 01:50:21;;;;;;;5.20;3.13;;;;;;;;;;5068907;28;20049;-60
2024/04/07 01:52:48;;;;;;;3.55;3.25;;;;;;;;;;5068200;28;20079;-63
2024/04/07 01:55:15;;;;;;;4.38;3.85;;;;;;;;;;5069095;28;20049;-60
2024/04/07 01:57:44;;;;;;;3.35;2.97;;;;;;;;;;5068585;28;20036;-60
2024/04/07 02:00:11;;;;;;;5.30;3.60;;;;;;;;;;5071189;28;20048;-60
2024/04/07 02:02:38;;;;;;;4.55;3.17;;;;;;;;;;5068655;28;20052;-61
2024/04/07 02:05:05;;;;;;;5.00;4.10;;;;;;;;;;5070082;28;20044;-59
2024/04/07 02:07:33;;;;;;;4.75;3.50;;;;;;;;;;5068179;28;20044;-63
2024/04/07 02:10:00;;;;;;;4.43;3.67;;;;;;;;;;5068669;28;20420;-60
2024/04/07 02:12:27;;;;;;;4.35;3.10;;;;;;;;;;5079152;28;20055;-62
2024/04/07 02:14:55;;;;;;;5.50;3.03;;;;;;;;;;5072673;28;20110;-61
2024/04/07 02:17:22;;;;;;;4.78;3.63;;;;;;;;;;5067574;28;20551;-60
2024/04/07 02:19:51;;;;;;;4.32;3.10;;;;;;;;;;5077174;28;20048;-59
2024/04/07 02:22:19;;;;;;;4.10;3.17;;;;;;;;;;5068726;28;20059;-59
2024/04/07 02:24:45;;;;;;;4.53;3.30;;;;;;;;;;5069723;28;20052;-60
2024/04/07 02:27:13;;;;;;;3.50;3.13;;;;;;;;;;5067521;28;20126;-60
2024/04/07 02:29:39;;;;;;;5.63;3.30;;;;;;;;;;5064695;28;20496;-60
2024/04/07 02:32:08;;;;;;;3.80;3.22;;;;;;;;;;5075199;28;20052;-61
2024/04/07 02:34:35;;;;;;;3.85;3.13;;;;;;;;;;5081833;28;20048;-59
2024/04/07 02:37:02;;;;;;;4.85;3.28;;;;;;;;;;5086655;28;20052;-59
2024/04/07 02:39:29;;;;;;;4.50;3.20;;;;;;;;;;5079226;28;20054;-61
2024/04/07 02:41:57;;;;;;;4.13;3.63;;;;;;;;;;5087700;28;20052;-61
2024/04/07 02:49:51;;;;;;;;;;;;;;;;;;5081127;28;20062;-62
2024/04/07 02:52:19;;;;;;;4.68;3.50;;;;;;;;;;5084361;28;19935;-61
2024/04/07 02:54:47;;;;;;;4.18;3.67;;;;;;;;;;5070493;28;20543;-61
2024/04/07 02:57:13;;;;;;;5.05;3.40;;;;;;;;;;5075900;28;20467;-62
2024/04/07 02:59:41;;;;;;;4.97;4.00;;;;;;;;;;5082398;28;20048;-60
2024/04/07 03:02:07;;;;;;;4.35;3.85;;;;;;;;;;5085370;28;20089;-64
2024/04/07 03:04:34;;;;;;;3.92;3.55;;;;;;;;;;5080850;28;20444;-61
2024/04/07 03:07:01;;;;;;;4.70;3.85;;;;;;;;;;5081910;28;20048;-62
2024/04/07 03:09:30;;;;;;;5.72;4.03;;;;;;;;;;5075751;28;20493;-60
2024/04/07 03:11:56;;;;;;;4.57;3.65;;;;;;;;;;5084152;28;20052;-60
2024/04/07 03:14:24;;;;;;;3.85;3.47;;;;;;;;;;5087037;28;20055;-60
2024/04/07 03:16:50;;;;;;;5.25;3.58;;;;;;;;;;5080258;28;20101;-61
2024/04/07 03:19:18;;;;;;;4.07;3.42;;;;;;;;;;5081629;28;20059;-60
2024/04/07 03:21:44;;;;;;;3.50;3.20;;;;;;;;;;5083943;28;20504;-62
2024/04/07 03:24:11;;;;;;;3.95;2.65;;;;;;;;;;5076744;28;20052;-59
2024/04/07 03:26:39;;;;;;;3.22;2.50;;;;;;;;;;5072587;28;20516;-60
2024/04/07 03:29:07;;;;;;;2.90;2.30;;;;;;;;;;5074217;28;20052;-61
2024/04/07 03:31:33;;;;;;;2.88;2.53;;;;;;;;;;5060759;28;20044;-62
2024/04/07 03:34:00;;;;;;;2.88;2.45;;;;;;;;;;5075252;28;20435;-61
2024/04/07 03:36:28;;;;;;;4.65;2.38;;;;;;;;;;5085520;28;20550;-59
2024/04/07 03:38:55;;;;;;;2.40;2.05;;;;;;;;;;5085352;28;20063;-60
2024/04/07 03:41:23;;;;;;;2.92;2.47;;;;;;;;;;5079615;28;20604;-59
2024/04/07 03:43:51;;;;;;;2.80;2.03;;;;;;;;;;5076146;28;20070;-60
2024/04/07 03:46:20;;;;;;;3.60;2.10;;;;;;;;;;5076481;28;20112;-61
2024/04/07 03:48:47;;;;;;;3.05;2.28;;;;;;;;;;5070766;28;20085;-60
2024/04/07 03:51:14;;;;;;;2.83;2.20;;;;;;;;;;5087446;28;20052;-62
2024/04/07 03:53:41;;;;;;;2.28;2.08;;;;;;;;;;5075423;28;20040;-59
2024/04/07 03:56:08;;;;;;;2.05;1.85;;;;;;;;;;5078817;28;20059;-60
2024/04/07 03:58:34;;;;;;;2.35;2.15;;;;;;;;;;5087588;28;20509;-61
2024/04/07 04:01:03;;;;;;;2.22;1.70;;;;;;;;;;5086224;28;20060;-62
2024/04/07 04:03:30;;;;;;;2.13;1.85;;;;;;;;;;5084255;28;20060;-60
2024/04/07 04:05:57;;;;;;;1.95;1.38;;;;;;;;;;5091057;27;20101;-59
2024/04/07 04:08:24;;;;;;;2.35;1.80;;;;;;;;;;5083918;28;20059;-60
2024/04/07 04:10:51;;;;;;;1.63;1.52;;;;;;;;;;5089770;28;20496;-60
2024/04/07 04:13:18;;;;;;;2.15;1.40;;;;;;;;;;5076492;28;20052;-60
2024/04/07 04:15:46;;;;;;;2.03;1.50;;;;;;;;;;5084692;28;20505;-62
2024/04/07 04:18:14;;;;;;;1.77;1.33;;;;;;;;;;5088390;28;20553;-59
2024/04/07 04:20:41;;;;;;;2.13;1.42;;;;;;;;;;5081824;28;20045;-60
2024/04/07 04:23:08;;;;;;;1.60;1.25;;;;;;;;;;5086779;28;20462;-61
2024/04/07 04:25:37;;;;;;;2.20;1.30;;;;;;;;;;5076163;28;20080;-61
2024/04/07 04:28:04;;;;;;;2.42;1.20;;;;;;;;;;5071170;28;20050;-60
2024/04/07 04:30:31;;;;;;;2.05;1.30;;;;;;;;;;5078847;28;20101;-59
2024/04/07 04:32:58;;;;;;;1.50;1.40;;;;;;;;;;5079400;28;20051;-59
2024/04/07 04:35:26;;;;;;;1.75;1.35;;;;;;;;;;5090447;28;20461;-60
2024/04/07 04:37:53;;;;;;;1.95;1.40;;;;;;;;;;5074143;28;20051;-61
2024/04/07 04:40:23;;;;;;;1.70;1.20;;;;;;;;;;5067875;28;20053;-60
2024/04/07 04:42:49;;;;;;;1.45;1.13;;;;;;;;;;5088784;28;20081;-60
2024/04/07 04:45:18;;;;;;;1.75;1.35;;;;;;;;;;5082485;28;20056;-64
2024/04/07 04:47:44;;;;;;;1.80;1.17;;;;;;;;;;5086037;28;20052;-60
2024/04/07 04:50:12;;;;;;;2.75;1.20;;;;;;;;;;5071667;28;20037;-61
2024/04/07 04:52:40;;;;;;;1.25;1.15;;;;;;;;;;5083655;28;20052;-61
2024/04/07 04:55:07;;;;;;;1.83;1.30;;;;;;;;;;5077885;28;20500;-60
2024/04/07 04:57:34;;;;;;;1.40;1.30;;;;;;;;;;5075215;28;20421;-59
2024/04/07 05:00:01;;;;;;;1.23;1.10;;;;;;;;;;5071624;28;20079;-60
2024/04/07 05:02:27;;;;;;;1.30;1.20;;;;;;;;;;5070065;28;20493;-61
2024/04/07 05:04:55;;;;;;;1.63;1.13;;;;;;;;;;5070098;28;20110;-60
2024/04/07 05:07:21;;;;;;;3.17;1.15;;;;;;;;;;5068400;28;20048;-61
2024/04/07 05:09:50;;;;;;;1.33;1.23;;;;;;;;;;5073478;28;20056;-59
2024/04/07 05:12:16;;;;;;;1.85;1.30;;;;;;;;;;5085746;28;20044;-59
2024/04/07 05:14:44;;;;;;;1.30;1.20;;;;;;;;;;5064002;28;20448;-62
2024/04/07 05:17:10;;;;;;;1.38;1.27;;;;;;;;;;5073826;28;20053;-61
2024/04/07 05:19:37;;;;;;;3.03;1.10;;;;;;;;;;5070754;28;20048;-61
2024/04/07 05:22:04;;;;;;;1.88;1.00;;;;;;;;;;5069999;28;20060;-60
2024/04/07 05:24:32;;;;;;;0.88;0.80;;;;;;;;;;5070512;28;20052;-60
2024/04/07 05:27:03;;;;;;;1.63;1.25;;;;;;;;;;5079919;28;20052;-59
2024/04/07 05:29:30;;;;;;;0.90;0.90;;;;;;;;;;5072962;28;20048;-61
2024/04/07 05:31:57;;;;;;;1.30;1.20;;;;;;;;;;5082290;28;20063;-60
2024/04/07 05:34:26;;;;;;;1.00;0.90;;;;;;;;;;5081973;28;20078;-60
2024/04/07 05:36:52;;;;;;;1.25;1.10;;;;;;;;;;5078901;28;20048;-59
2024/04/07 05:39:20;;;;;;;1.17;1.08;;;;;;;;;;5084117;28;20508;-59
2024/04/07 05:41:46;;;;;;;2.45;1.10;;;;;;;;;;5084522;28;20063;-60
2024/04/07 05:44:15;;;;;;;1.45;1.00;;;;;;;;;;5082903;28;20051;-62
2024/04/07 05:46:42;;;;;;;0.95;0.82;;;;;;;;;;5080271;28;20107;-60
2024/04/07 05:49:09;;;;;;;1.08;0.90;;;;;;;;;;5086142;28;20455;-59
2024/04/07 05:51:35;;;;;;;1.35;1.25;;;;;;;;;;5074716;28;20060;-60
2024/04/07 05:54:03;;;;;;;1.15;0.90;;;;;;;;;;5073463;28;20413;-59
2024/04/07 05:56:30;;;;;;;1.02;0.93;;;;;;;;;;5084285;28;20436;-62
2024/04/07 05:58:57;;;;;;;0.90;0.90;;;;;;;;;;5084277;28;20508;-61
2024/04/07 06:01:25;;;;;;;1.20;1.10;;;;;;;;;;5081082;28;20137;-60
2024/04/07 06:03:52;;;;;;;1.10;0.80;;;;;;;;;;5076246;28;20416;-57
2024/04/07 06:06:19;;;;;;;0.70;0.70;;;;;;;;;;5080733;28;20397;-59
2024/04/07 06:08:46;;;;;;;0.82;0.80;;;;;;;;;;5070617;28;20489;-61
2024/04/07 06:11:13;;;;;;;0.88;0.80;;;;;;;;;;5081838;28;20576;-60
2024/04/07 06:13:40;;;;;;;0.90;0.90;;;;;;;;;;5079969;28;20048;-61
2024/04/07 06:16:07;;;;;;;0.80;0.80;;;;;;;;;;5078008;28;20582;-59
2024/04/07 06:18:37;;;;;;;0.95;0.90;;;;;;;;;;5073860;28;20064;-60
2024/04/07 06:21:07;;;;;;;0.90;0.80;;;;;;;;;;5088365;28;20048;-61
2024/04/07 06:23:34;;;;;;;0.63;0.63;;;;;;;;;;5056775;28;20412;-61
2024/04/07 06:26:01;;;;;;;0.95;0.90;;;;;;;;;;5074150;28;20052;-59
2024/04/07 06:28:29;;;;;;;1.23;0.90;;;;;;;;;;5080281;28;20359;-62
2024/04/07 06:30:55;;;;;;;1.05;0.95;;;;;;;;;;5071314;28;20056;-59
2024/04/07 06:33:26;;;;;;;0.85;0.75;;;;;;;;;;5065915;28;20095;-61
2024/04/07 06:35:54;;;;;;;0.80;0.73;;;;;;;;;;5076226;28;20408;-61
2024/04/07 06:38:21;;;;;;;1.15;0.80;;;;;;;;;;5074774;28;20053;-60
2024/04/07 06:40:48;;;;;;;1.92;1.00;;;;;;;;;;5070984;28;20500;-59
2024/04/07 06:43:15;;;;;;;1.25;0.82;;;;;;;;;;5082911;28;20420;-61
2024/04/07 06:45:41;;;;;;;1.05;0.85;;;;;;;;;;5077952;27;20170;-60
2024/04/07 06:48:09;;;;;;;0.98;0.98;;;;;;;;;;5079610;28;20497;-61
2024/04/07 06:50:35;;;;;;;1.25;1.05;;;;;;;;;;5073118;28;20055;-61
2024/04/07 06:53:04;;;;;;;1.65;0.80;;;;;;;;;;5080864;28;20125;-59
2024/04/07 06:55:31;;;;;;;3.38;1.30;;;;;;;;;;5084491;28;20101;-59
2024/04/07 06:57:58;;;;;;;2.25;1.33;;;;;;;;;;5080054;28;20040;-60
2024/04/07 07:00:25;;;;;;;3.38;1.45;;;;;;;;;;5079054;28;20060;-60
2024/04/07 07:02:52;;;;;;;2.17;1.10;;;;;;;;;;5084274;28;20252;-60
2024/04/07 07:05:19;;;;;;;5.07;1.17;;;;;;;;;;5070010;28;20048;-61
2024/04/07 07:07:46;;;;;;;1.50;0.90;;;;;;;;;;5085360;28;20049;-60
2024/04/07 07:10:14;;;;;;;0.98;0.77;;;;;;;;;;5084560;28;20052;-61
2024/04/07 07:12:41;;;;;;;3.15;1.05;;;;;;;;;;5085237;28;20048;-61
2024/04/07 07:15:08;;;;;;;2.65;1.00;;;;;;;;;;5079802;28;20109;-61
2024/04/07 07:17:35;;;;;;;2.30;0.93;;;;;;;;;;5084836;28;20044;-61
2024/04/07 07:20:02;;;;;;;1.27;0.90;;;;;;;;;;5077736;28;20052;-60
2024/04/07 07:22:29;;;;;;;1.45;1.10;;;;;;;;;;5073414;28;20048;-61
2024/04/07 07:24:55;;;;;;;2.22;0.90;;;;;;;;;;5067481;28;20378;-59
2024/04/07 07:27:24;;;;;;;0.70;0.70;;;;;;;;;;5064946;28;20048;-61
2024/04/07 07:29:51;;;;;;;0.80;0.75;;;;;;;;;;5069847;28;20497;-61
2024/04/07 07:32:18;;;;;;;0.60;0.60;;;;;;;;;;5073336;28;20040;-61
2024/04/07 07:34:44;;;;;;;0.90;0.80;;;;;;;;;;5080711;28;20488;-60
2024/04/07 07:37:12;;;;;;;1.10;1.00;;;;;;;;;;5075624;28;20040;-59
2024/04/07 07:39:39;;;;;;;1.00;0.90;;;;;;;;;;5081567;28;20052;-60
2024/04/07 07:42:07;;;;;;;1.08;0.98;;;;;;;;;;5078466;28;20105;-61
2024/04/07 07:44:35;;;;;;;0.98;0.82;;;;;;;;;;5072358;28;20059;-62
2024/04/07 07:47:02;;;;;;;1.20;1.00;;;;;;;;;;5080118;28;20047;-61
2024/04/07 07:49:28;;;;;;;1.10;1.00;;;;;;;;;;5080010;28;20052;-60
2024/04/07 07:51:56;;;;;;;1.60;1.27;;;;;;;;;;5078574;28;20040;-61
2024/04/07 07:54:22;;;;;;;1.52;1.15;;;;;;;;;;5072801;28;20056;-60
2024/04/07 07:56:50;;;;;;;1.27;0.90;;;;;;;;;;5079376;28;20049;-61
2024/04/07 07:59:16;;;;;;;2.33;0.90;;;;;;;;;;5079498;28;20048;-63
2024/04/07 08:01:45;;;;;;;1.42;1.08;;;;;;;;;;5072779;28;20082;-60
2024/04/07 08:04:11;;;;;;;2.45;0.90;;;;;;;;;;5084208;28;20044;-60
2024/04/07 08:06:39;;;;;;;1.27;0.90;;;;;;;;;;5073476;28;20072;-61
2024/04/07 08:09:05;;;;;;;2.28;1.00;;;;;;;;;;5076793;28;20051;-61
2024/04/07 08:11:33;;;;;;;1.25;1.00;;;;;;;;;;5084603;28;20040;-62
2024/04/07 08:14:00;;;;;;;2.45;1.00;;;;;;;;;;5076017;28;20497;-62
2024/04/07 08:16:27;;;;;;;1.38;0.80;;;;;;;;;;5075332;28;20110;-61
2024/04/07 08:18:56;;;;;;;0.90;0.90;;;;;;;;;;5083163;28;20098;-60
2024/04/07 08:21:24;;;;;;;1.45;0.90;;;;;;;;;;5073781;28;20044;-60
2024/04/07 08:23:51;;;;;;;1.05;0.95;;;;;;;;;;5075676;28;20059;-60
2024/04/07 08:26:18;;;;;;;1.10;1.00;;;;;;;;;;5078795;28;20044;-61
2024/04/07 08:28:46;;;;;;;1.08;0.70;;;;;;;;;;5070965;28;20060;-63
2024/04/07 08:31:14;;;;;;;1.83;0.80;;;;;;;;;;5068099;28;20089;-62
2024/04/07 08:33:40;;;;;;;1.38;0.90;;;;;;;;;;5079232;28;20051;-61
2024/04/07 08:36:09;;;;;;;0.85;0.70;;;;;;;;;;5079761;28;20401;-62
2024/04/07 08:38:35;;;;;;;0.82;0.63;;;;;;;;;;5067823;28;20055;-60
2024/04/07 08:41:03;;;;;;;0.80;0.80;;;;;;;;;;5068839;28;20053;-61
2024/04/07 08:43:29;;;;;;;0.90;0.80;;;;;;;;;;5068761;28;20056;-60
2024/04/07 08:45:57;;;;;;;1.30;0.80;;;;;;;;;;5069793;28;20052;-62
2024/04/07 08:48:25;;;;;;;1.17;0.80;;;;;;;;;;5071450;28;20051;-62
2024/04/07 08:50:52;;;;;;;0.60;0.60;;;;;;;;;;5072186;28;20110;-62
2024/04/07 08:53:20;;;;;;;0.90;0.60;;;;;;;;;;5075475;28;20053;-60
2024/04/07 08:55:50;;;;;;;0.93;0.70;;;;;;;;;;5071344;27;20485;-61
2024/04/07 08:58:17;;;;;;;0.73;0.60;;;;;;;;;;5073839;28;20048;-62
2024/04/07 09:00:45;;;;;;;0.68;0.60;;;;;;;;;;5067169;28;20079;-62
2024/04/07 09:03:12;;;;;;;1.15;0.70;;;;;;;;;;5066278;28;20129;-63
2024/04/07 09:05:39;;;;;;;1.52;0.80;;;;;;;;;;5065299;28;20524;-62
2024/04/07 09:08:07;;;;;;;0.65;0.60;;;;;;;;;;5065880;28;20048;-61
2024/04/07 09:10:35;;;;;;;0.70;0.70;;;;;;;;;;5068715;28;20113;-62
2024/04/07 09:13:02;;;;;;;0.60;0.60;;;;;;;;;;5068255;28;20056;-62
2024/04/07 09:15:30;;;;;;;1.30;0.60;;;;;;;;;;5068591;28;20072;-62
2024/04/07 09:17:57;;;;;;;3.35;0.80;;;;;;;;;;5067978;28;20447;-62
2024/04/07 09:20:24;;;;;;;1.05;0.70;;;;;;;;;;5075539;28;20523;-61
2024/04/07 09:22:51;;;;;;;1.15;0.82;;;;;;;;;;5071275;28;20060;-62
2024/04/07 09:25:18;;;;;;;0.60;0.60;;;;;;;;;;5069677;28;20044;-62
2024/04/07 09:27:46;;;;;;;1.60;0.70;;;;;;;;;;5068925;28;20524;-62
2024/04/07 09:30:15;;;;;;;0.50;0.50;;;;;;;;;;5072521;28;20083;-62
2024/04/07 09:32:41;;;;;;;1.05;0.52;;;;;;;;;;5076697;28;20101;-62
2024/04/07 09:35:09;;;;;;;1.75;0.82;;;;;;;;;;5071513;28;20412;-61
2024/04/07 09:37:38;;;;;;;1.08;0.60;;;;;;;;;;5072136;28;20047;-61
2024/04/07 09:40:06;;;;;;;2.97;0.70;;;;;;;;;;5089310;28;20052;-62
2024/04/07 09:42:33;;;;;;;2.38;0.60;;;;;;;;;;5083605;28;20052;-61
2024/04/07 09:45:03;;;;;;;1.10;0.55;;;;;;;;;;5070146;28;20487;-62
2024/04/07 09:47:33;;;;;;;4.22;0.60;;;;;;;;;;5082297;28;20040;-61
2024/04/07 09:50:04;;;;;;;1.17;0.60;;;;;;;;;;5088530;28;20413;-62
2024/04/07 09:52:32;;;;;;;3.38;0.80;;;;;;;;;;5079200;28;20232;-63
2024/04/07 09:55:03;;;;;;;1.77;0.60;;;;;;;;;;5080413;28;20040;-63
2024/04/07 09:57:30;;;;;;;1.90;0.80;;;;;;;;;;5072297;28;20047;-63
2024/04/07 09:59:58;;;;;;;3.42;1.00;;;;;;;;;;5069574;28;20048;-63
2024/04/07 10:02:26;;;;;;;2.70;0.70;;;;;;;;;;5087154;28;20056;-63
2024/04/07 10:04:55;;;;;;;1.92;0.60;;;;;;;;;;5087876;28;20051;-63
2024/04/07 10:07:23;;;;;;;2.67;0.68;;;;;;;;;;5075301;28;20045;-63
2024/04/07 10:09:52;;;;;;;1.08;0.65;;;;;;;;;;5081779;28;20397;-63
2024/04/07 10:12:28;;;;;;;6.10;0.90;;;;;;;;;;5057867;28;20044;-63
2024/04/07 10:14:56;;;;;;;2.25;0.85;;;;;;;;;;5073665;28;20052;-64
2024/04/07 10:17:23;;;;;;;1.08;0.65;;;;;;;;;;5084283;28;20040;-64
2024/04/07 10:19:54;;;;;;;4.75;0.93;;;;;;;;;;5088176;28;20055;-64
2024/04/07 10:22:22;;;;;;;2.78;0.75;;;;;;;;;;5075451;28;20049;-64
2024/04/07 10:24:50;;;;;;;4.03;0.90;;;;;;;;;;5081022;28;20056;-63
2024/04/07 10:27:22;;;;;;;8.77;1.30;;;;;;;;;;5079926;28;20044;-63
2024/04/07 10:29:53;;;;;;;1.75;0.70;;;;;;;;;;5070987;28;20057;-64
2024/04/07 10:32:26;;;;;;;4.00;1.02;;;;;;;;;;5070866;28;20040;-64
2024/04/07 10:35:01;;;;;;;2.95;1.00;;;;;;;;;;5066483;28;20037;-64
2024/04/07 10:37:27;;;;;;;4.90;1.30;;;;;;;;;;5076328;28;20570;-63
2024/04/07 10:39:57;;;;;;;5.97;0.90;;;;;;;;;;5072964;28;20049;-64
2024/04/07 10:42:23;;;;;;;2.10;0.73;;;;;;;;;;5079172;28;20117;-64
2024/04/07 10:44:51;;;;;;;2.30;0.80;;;;;;;;;;5081509;28;20570;-64
2024/04/07 10:47:17;;;;;;;3.13;0.95;;;;;;;;;;5081968;28;20048;-64
2024/04/07 10:49:45;;;;;;;6.65;1.23;;;;;;;;;;5078147;28;20057;-64
2024/04/07 10:52:16;;;;;;;4.43;1.20;;;;;;;;;;5079769;28;20052;-64
2024/04/07 10:54:44;;;;;;;4.63;1.15;;;;;;;;;;5077679;28;20121;-63
2024/04/07 10:57:11;;;;;;;3.40;1.00;;;;;;;;;;5075890;28;20048;-64
2024/04/07 10:59:38;;;;;;;1.88;0.80;;;;;;;;;;5086717;28;20051;-64
2024/04/07 11:02:05;;;;;;;3.55;0.98;;;;;;;;;;5084281;28;20056;-64
2024/04/07 11:04:33;;;;;;;4.53;1.10;;;;;;;;;;5077960;28;20044;-64
2024/04/07 11:06:59;;;;;;;3.47;0.93;;;;;;;;;;5075346;28;20060;-65
2024/04/07 11:09:28;;;;;;;2.55;1.00;;;;;;;;;;5080580;28;20568;-64
2024/04/07 11:11:55;;;;;;;4.53;1.23;;;;;;;;;;5085792;28;20132;-65
2024/04/07 11:14:26;;;;;;;8.27;1.10;;;;;;;;;;5079451;28;20056;-64
2024/04/07 11:16:53;;;;;;;3.63;0.95;;;;;;;;;;5077312;28;20048;-65
2024/04/07 11:19:23;;;;;;;2.70;1.00;;;;;;;;;;5074860;28;20045;-62
2024/04/07 11:21:50;;;;;;;4.18;1.10;;;;;;;;;;5080059;28;20036;-64
2024/04/07 11:24:17;;;;;;;2.50;0.90;;;;;;;;;;5067645;28;20048;-66
2024/04/07 11:26:47;;;;;;;2.92;0.88;;;;;;;;;;5079755;28;20053;-64
2024/04/07 11:29:16;;;;;;;4.47;0.95;;;;;;;;;;5073173;28;20060;-65
2024/04/07 11:31:43;;;;;;;5.30;1.38;;;;;;;;;;5075054;28;20474;-65
2024/04/07 11:34:10;;;;;;;3.22;0.95;;;;;;;;;;5073948;28;20041;-65
2024/04/07 11:36:37;;;;;;;5.60;1.10;;;;;;;;;;5077721;28;20044;-64
2024/04/07 11:39:04;;;;;;;3.10;0.98;;;;;;;;;;5073475;28;20064;-64
2024/04/07 11:41:31;;;;;;;5.95;1.27;;;;;;;;;;5087679;28;20113;-64
2024/04/07 11:44:02;;;;;;;4.10;0.95;;;;;;;;;;5084821;28;20060;-64
2024/04/07 11:46:28;;;;;;;3.97;0.90;;;;;;;;;;5067866;28;20037;-64
2024/04/07 11:48:56;;;;;;;3.35;1.10;;;;;;;;;;5077546;28;20047;-64
2024/04/07 11:51:22;;;;;;;2.45;0.98;;;;;;;;;;5081352;28;20055;-64
2024/04/07 11:53:50;;;;;;;6.05;1.23;;;;;;;;;;5072557;28;20417;-64
2024/04/07 11:56:17;;;;;;;2.30;0.80;;;;;;;;;;5084470;28;20040;-64
2024/04/07 11:58:45;;;;;;;2.78;1.08;;;;;;;;;;5082251;28;20110;-65
2024/04/07 12:01:13;;;;;;;3.22;1.10;;;;;;;;;;5086051;28;20101;-64
2024/04/07 12:03:41;;;;;;;4.60;1.20;;;;;;;;;;5071639;28;20130;-65
2024/04/07 12:06:08;;;;;;;4.60;1.10;;;;;;;;;;5068834;28;20097;-64
2024/04/07 12:08:35;;;;;;;4.50;1.02;;;;;;;;;;5083752;28;20052;-64
2024/04/07 12:11:02;;;;;;;4.32;1.05;;;;;;;;;;5073442;28;20420;-63
2024/04/07 12:13:29;;;;;;;5.88;1.15;;;;;;;;;;5075245;28;20481;-64
2024/04/07 12:15:56;;;;;;;3.05;1.30;;;;;;;;;;5086404;27;20086;-64
2024/04/07 12:18:24;;;;;;;3.63;0.90;;;;;;;;;;5087603;28;20386;-65
2024/04/07 12:20:51;;;;;;;4.88;1.10;;;;;;;;;;5074512;28;20055;-63
2024/04/07 12:23:18;;;;;;;4.72;1.13;;;;;;;;;;5084525;28;20051;-65
2024/04/07 12:25:45;;;;;;;4.80;1.63;;;;;;;;;;5090347;27;20089;-65
2024/04/07 12:28:14;;;;;;;3.47;1.20;;;;;;;;;;5085855;28;20056;-65
2024/04/07 12:30:40;;;;;;;8.00;1.33;;;;;;;;;;5070850;28;20051;-65
2024/04/07 12:33:08;;;;;;;3.80;1.20;;;;;;;;;;5085725;28;20055;-65
2024/04/07 12:35:36;;;;;;;3.55;1.20;;;;;;;;;;5076637;28;20044;-66
2024/04/07 12:38:03;;;;;;;4.22;1.38;;;;;;;;;;5088225;28;20467;-65
2024/04/07 12:40:30;;;;;;;3.53;1.02;;;;;;;;;;5077274;28;20056;-65
2024/04/07 12:42:57;;;;;;;1.30;0.80;;;;;;;;;;5084386;28;20052;-65
2024/04/07 12:45:24;;;;;;;5.18;1.10;;;;;;;;;;5074495;28;20052;-64
2024/04/07 12:47:51;;;;;;;3.50;1.20;;;;;;;;;;5081494;28;20040;-64
2024/04/07 12:50:18;;;;;;;1.48;0.70;;;;;;;;;;5068394;28;20041;-64
2024/04/07 12:52:47;;;;;;;3.08;1.13;;;;;;;;;;5075080;28;20051;-65
2024/04/07 12:55:13;;;;;;;3.45;1.10;;;;;;;;;;5074628;28;20057;-66
2024/04/07 12:57:41;;;;;;;3.10;1.13;;;;;;;;;;5082954;28;20044;-64
2024/04/07 13:00:14;;;;;;;4.03;0.93;;;;;;;;;;5088924;28;20386;-64
2024/04/07 13:02:42;;;;;;;3.97;1.02;;;;;;;;;;5083510;28;20052;-65
2024/04/07 13:05:09;;;;;;;4.35;1.20;;;;;;;;;;5071791;28;20052;-65
2024/04/07 13:07:36;;;;;;;3.85;1.10;;;;;;;;;;5088582;28;20556;-65
2024/04/07 13:10:07;;;;;;;3.55;1.10;;;;;;;;;;5086543;28;20515;-65
2024/04/07 13:12:33;;;;;;;3.40;1.20;;;;;;;;;;5075673;28;20071;-66
2024/04/07 13:15:03;;;;;;;1.77;0.75;;;;;;;;;;5074592;28;20059;-65
2024/04/07 13:17:29;;;;;;;1.92;0.98;;;;;;;;;;5085197;28;20086;-65
2024/04/07 13:19:56;;;;;;;2.03;0.90;;;;;;;;;;5085637;28;20048;-65
2024/04/07 13:22:23;;;;;;;5.45;1.40;;;;;;;;;;5076317;28;20059;-64
2024/04/07 13:24:50;;;;;;;4.20;0.90;;;;;;;;;;5085512;28;20059;-64
2024/04/07 13:27:18;;;;;;;4.70;1.02;;;;;;;;;;5082577;28;20501;-65
2024/04/07 13:29:45;;;;;;;3.78;1.45;;;;;;;;;;5073246;28;20048;-65
2024/04/07 13:32:12;;;;;;;3.10;1.20;;;;;;;;;;5071002;28;20565;-65
2024/04/07 13:34:39;;;;;;;4.25;1.20;;;;;;;;;;5083242;28;20106;-65
2024/04/07 13:37:06;;;;;;;3.67;1.20;;;;;;;;;;5081279;28;20048;-64
2024/04/07 13:39:34;;;;;;;5.03;1.00;;;;;;;;;;5075938;28;20059;-64
2024/04/07 13:42:00;;;;;;;3.95;1.00;;;;;;;;;;5088890;28;20060;-65
2024/04/07 13:44:29;;;;;;;4.18;0.90;;;;;;;;;;5068558;28;20060;-64
2024/04/07 13:46:55;;;;;;;3.85;1.23;;;;;;;;;;5074224;28;20039;-64
2024/04/07 13:49:23;;;;;;;2.88;1.10;;;;;;;;;;5085984;28;20262;-64
2024/04/07 13:51:50;;;;;;;2.47;1.05;;;;;;;;;;5089762;28;20078;-64
2024/04/07 13:54:18;;;;;;;4.03;1.42;;;;;;;;;;5077986;28;20056;-68
2024/04/07 13:56:44;;;;;;;4.22;1.00;;;;;;;;;;5074494;28;20048;-65
2024/04/07 13:59:11;;;;;;;5.75;0.90;;;;;;;;;;5088068;28;20043;-65
2024/04/07 14:01:39;;;;;;;6.05;1.17;;;;;;;;;;5088491;28;20468;-63
2024/04/07 14:04:06;;;;;;;5.60;1.10;;;;;;;;;;5077991;28;20067;-63
2024/04/07 14:06:33;;;;;;;3.72;1.00;;;;;;;;;;5080148;28;20357;-63
2024/04/07 14:09:01;;;;;;;2.33;0.98;;;;;;;;;;5076643;28;20132;-64
2024/04/07 14:11:27;;;;;;;3.70;1.10;;;;;;;;;;5070545;28;20577;-65
2024/04/07 14:13:56;;;;;;;8.57;1.23;;;;;;;;;;5069647;28;20052;-66
2024/04/07 14:16:22;;;;;;;3.75;1.48;;;;;;;;;;5078860;28;20062;-66
2024/04/07 14:18:51;;;;;;;2.70;1.38;;;;;;;;;;5084028;28;20059;-66
2024/04/07 14:21:18;;;;;;;3.58;0.95;;;;;;;;;;5073983;28;20493;-65
2024/04/07 14:23:45;;;;;;;5.07;1.30;;;;;;;;;;5084111;28;20244;-65
2024/04/07 14:26:12;;;;;;;3.33;1.15;;;;;;;;;;5074565;28;20047;-66
2024/04/07 14:28:39;;;;;;;5.03;1.10;;;;;;;;;;5076192;28;20052;-65
2024/04/07 14:31:06;;;;;;;3.03;1.20;;;;;;;;;;5070631;28;20095;-65
2024/04/07 14:33:34;;;;;;;2.42;1.15;;;;;;;;;;5071673;28;20048;-64
2024/04/07 14:36:01;;;;;;;5.13;1.23;;;;;;;;;;5077575;28;20063;-65
2024/04/07 14:38:29;;;;;;;3.25;1.10;;;;;;;;;;5084543;28;20377;-65
2024/04/07 14:40:58;;;;;;;1.95;0.88;;;;;;;;;;5082115;28;20138;-65
2024/04/07 14:43:25;;;;;;;6.82;1.27;;;;;;;;;;5082874;28;20056;-65
2024/04/07 14:45:54;;;;;;;2.67;1.00;;;;;;;;;;5081847;27;20483;-65
2024/04/07 14:48:22;;;;;;;3.05;1.08;;;;;;;;;;5082468;28;20060;-65
2024/04/07 14:50:48;;;;;;;3.92;1.17;;;;;;;;;;5070016;28;20056;-66